createdAt,value
2022-08-31T00:02:01.960Z,2.47
2022-08-31T00:04:32.035Z,2.70
2022-08-31T00:07:00.262Z,2.07
2022-08-31T00:09:31.099Z,2.50
2022-08-31T00:11:59.379Z,2.53
2022-08-31T00:14:28.657Z,2.47
2022-08-31T00:16:56.971Z,3.00
2022-08-31T00:19:25.438Z,3.20
2022-08-31T00:21:53.697Z,3.10
2022-08-31T00:24:21.922Z,3.20
2022-08-31T00:26:51.372Z,3.37
2022-08-31T00:29:19.847Z,3.33
2022-08-31T00:31:48.230Z,3.87
2022-08-31T00:34:16.621Z,3.37
2022-08-31T00:36:47.322Z,4.13
2022-08-31T00:39:15.936Z,4.57
2022-08-31T00:41:44.547Z,5.00
2022-08-31T00:44:15.096Z,4.40
2022-08-31T00:46:45.222Z,3.97
2022-08-31T00:49:17.599Z,4.50
2022-08-31T00:51:50.012Z,4.20
2022-08-31T00:54:21.473Z,4.13
2022-08-31T00:56:49.968Z,3.73
2022-08-31T00:59:21.798Z,4.33
2022-08-31T01:01:50.585Z,4.20
2022-08-31T01:04:19.483Z,3.90
2022-08-31T01:06:49.246Z,4.07
2022-08-31T01:09:17.945Z,3.60
2022-08-31T01:11:46.729Z,4.00
2022-08-31T01:14:15.777Z,4.07
2022-08-31T01:16:50.788Z,3.90
2022-08-31T01:19:33.639Z,4.33
2022-08-31T01:22:14.866Z,4.43
2022-08-31T01:24:48.670Z,4.20
2022-08-31T01:27:24.357Z,4.13
2022-08-31T01:29:54.595Z,3.80
2022-08-31T01:32:22.755Z,4.00
2022-08-31T01:34:51.032Z,4.67
2022-08-31T01:37:19.621Z,4.23
2022-08-31T01:39:58.956Z,3.73
2022-08-31T01:42:30.913Z,4.10
2022-08-31T01:45:02.574Z,4.27
2022-08-31T01:47:30.718Z,4.60
2022-08-31T01:49:58.878Z,4.90
2022-08-31T01:52:28.022Z,4.53
2022-08-31T01:54:58.514Z,4.23
2022-08-31T01:57:34.233Z,4.07
2022-08-31T02:00:34.919Z,4.27
2022-08-31T02:03:07.868Z,4.47
2022-08-31T02:05:38.182Z,4.07
2022-08-31T02:08:09.625Z,4.70
2022-08-31T02:10:40.029Z,3.90
2022-08-31T02:13:08.541Z,4.23
2022-08-31T02:15:39.584Z,4.43
2022-08-31T02:18:09.565Z,3.93
2022-08-31T02:20:40.529Z,3.93
2022-08-31T02:23:08.779Z,4.33
2022-08-31T02:25:38.348Z,3.97
2022-08-31T02:28:06.436Z,4.40
2022-08-31T02:30:34.737Z,4.47
2022-08-31T02:33:03.237Z,4.13
2022-08-31T02:35:31.915Z,4.43
2022-08-31T02:38:01.409Z,4.47
2022-08-31T02:40:30.649Z,4.73
2022-08-31T02:43:00.222Z,4.57
2022-08-31T02:45:28.671Z,4.50
2022-08-31T02:48:04.110Z,4.00
2022-08-31T02:50:42.049Z,4.20
2022-08-31T02:53:10.784Z,4.43
2022-08-31T02:55:39.946Z,4.67
2022-08-31T02:58:09.768Z,4.23
2022-08-31T03:00:39.763Z,4.23
2022-08-31T03:03:08.163Z,4.27
2022-08-31T03:05:36.523Z,4.37
2022-08-31T03:08:05.326Z,4.07
2022-08-31T03:10:33.644Z,3.70
2022-08-31T03:13:02.347Z,4.30
2022-08-31T03:15:32.125Z,4.20
2022-08-31T03:18:06.721Z,4.30
2022-08-31T03:20:36.033Z,4.70
2022-08-31T03:23:04.814Z,4.00
2022-08-31T03:25:34.036Z,4.37
2022-08-31T03:28:03.103Z,4.17
2022-08-31T03:30:35.980Z,4.47
2022-08-31T03:33:09.505Z,4.47
2022-08-31T03:35:43.594Z,4.20
2022-08-31T03:38:12.846Z,4.10
2022-08-31T03:40:41.774Z,4.30
2022-08-31T03:43:11.380Z,3.93
2022-08-31T03:45:43.885Z,4.27
2022-08-31T03:48:13.430Z,4.07
2022-08-31T03:50:45.136Z,4.57
2022-08-31T03:53:25.738Z,4.00
2022-08-31T03:56:01.665Z,4.60
2022-08-31T03:58:33.213Z,4.17
2022-08-31T04:01:04.088Z,3.87
2022-08-31T04:03:52.235Z,4.23
2022-08-31T04:06:40.253Z,4.03
2022-08-31T04:09:26.798Z,4.00
2022-08-31T04:12:23.897Z,3.87
2022-08-31T04:14:55.444Z,4.30
2022-08-31T04:17:48.705Z,4.90
2022-08-31T04:20:41.419Z,4.50
2022-08-31T04:23:11.188Z,3.90
2022-08-31T04:25:47.225Z,4.03
2022-08-31T04:28:15.421Z,4.27
2022-08-31T04:30:45.048Z,3.80
2022-08-31T04:33:18.868Z,4.37
2022-08-31T04:35:49.958Z,3.80
2022-08-31T04:38:18.350Z,4.00
2022-08-31T04:40:47.410Z,3.83
2022-08-31T04:43:15.734Z,4.33
2022-08-31T04:45:46.184Z,4.23
2022-08-31T04:48:15.098Z,3.80
2022-08-31T04:50:45.559Z,4.13
2022-08-31T04:53:13.924Z,3.63
2022-08-31T04:55:43.260Z,3.43
2022-08-31T04:58:13.845Z,3.73
2022-08-31T05:00:44.409Z,4.37
2022-08-31T05:03:37.799Z,3.77
2022-08-31T05:06:12.939Z,3.50
2022-08-31T05:08:41.075Z,3.93
2022-08-31T05:11:12.338Z,3.90
2022-08-31T05:13:40.928Z,4.23
2022-08-31T05:16:12.351Z,3.70
2022-08-31T05:18:43.028Z,4.13
2022-08-31T05:21:15.234Z,4.03
2022-08-31T05:23:46.709Z,3.90
2022-08-31T05:26:23.514Z,3.53
2022-08-31T05:28:56.076Z,3.63
2022-08-31T05:31:28.229Z,3.80
2022-08-31T05:33:57.867Z,3.63
2022-08-31T05:36:37.497Z,4.57
2022-08-31T05:39:11.699Z,3.83
2022-08-31T05:41:41.043Z,4.13
2022-08-31T05:44:09.752Z,4.00
2022-08-31T05:46:41.403Z,4.13
2022-08-31T05:49:10.917Z,3.47
2022-08-31T05:51:41.094Z,4.30
2022-08-31T05:54:10.748Z,4.30
2022-08-31T05:56:41.564Z,3.77
2022-08-31T05:59:11.500Z,3.73
2022-08-31T06:01:41.566Z,4.10
2022-08-31T06:04:27.053Z,4.07
2022-08-31T06:06:57.227Z,4.63
2022-08-31T06:09:29.414Z,3.80
2022-08-31T06:11:57.726Z,3.97
2022-08-31T06:14:25.858Z,3.93
2022-08-31T06:16:56.707Z,4.23
2022-08-31T06:19:25.841Z,4.00
2022-08-31T06:21:57.374Z,4.53
2022-08-31T06:24:28.633Z,4.40
2022-08-31T06:26:59.381Z,4.17
2022-08-31T06:29:35.606Z,4.40
2022-08-31T06:32:07.999Z,4.13
2022-08-31T06:34:40.525Z,4.23
2022-08-31T06:37:18.783Z,4.40
2022-08-31T06:39:54.549Z,5.00
2022-08-31T06:42:32.883Z,4.23
2022-08-31T06:45:03.595Z,4.40
2022-08-31T06:47:56.264Z,4.67
2022-08-31T06:50:24.415Z,4.50
2022-08-31T06:52:55.568Z,4.97
2022-08-31T06:55:25.834Z,4.90
2022-08-31T06:58:12.462Z,4.77
2022-08-31T07:01:08.694Z,4.63
2022-08-31T07:03:57.533Z,4.53
2022-08-31T07:06:28.709Z,4.57
2022-08-31T07:09:03.808Z,4.37
2022-08-31T07:11:41.015Z,5.07
2022-08-31T07:14:15.621Z,5.90
2022-08-31T07:16:46.086Z,4.70
2022-08-31T07:19:16.228Z,5.33
2022-08-31T07:21:47.854Z,4.63
2022-08-31T07:24:24.123Z,4.77
2022-08-31T07:26:57.831Z,6.80
2022-08-31T07:29:40.184Z,7.00
2022-08-31T07:32:13.469Z,4.70
2022-08-31T07:34:43.979Z,4.70
2022-08-31T07:37:59.006Z,4.10
2022-08-31T07:40:50.219Z,4.77
2022-08-31T07:43:19.188Z,4.73
2022-08-31T07:45:47.572Z,4.40
2022-08-31T07:48:21.470Z,4.30
2022-08-31T07:51:05.673Z,4.77
2022-08-31T07:53:47.378Z,5.07
2022-08-31T07:56:34.699Z,5.03
2022-08-31T07:59:15.192Z,5.10
2022-08-31T08:01:45.158Z,4.90
2022-08-31T08:04:25.316Z,5.83
2022-08-31T08:07:33.729Z,4.97
2022-08-31T08:10:24.218Z,5.23
2022-08-31T08:13:07.809Z,4.87
2022-08-31T08:15:48.551Z,5.10
2022-08-31T08:18:27.118Z,5.20
2022-08-31T08:20:59.403Z,4.50
2022-08-31T08:23:29.121Z,4.73
2022-08-31T08:26:21.429Z,5.33
2022-08-31T08:29:22.107Z,4.73
2022-08-31T08:31:53.002Z,5.77
2022-08-31T08:34:29.587Z,5.40
2022-08-31T08:37:01.660Z,5.23
2022-08-31T08:39:30.301Z,4.93
2022-08-31T08:42:15.682Z,5.10
2022-08-31T08:44:45.735Z,4.83
2022-08-31T08:47:38.499Z,5.33
2022-08-31T08:50:09.018Z,6.30
2022-08-31T08:52:43.282Z,4.77
2022-08-31T08:55:16.775Z,4.90
2022-08-31T08:57:52.282Z,4.70
2022-08-31T09:00:25.392Z,5.13
2022-08-31T09:03:02.150Z,4.87
2022-08-31T09:06:02.839Z,5.37
2022-08-31T09:09:09.452Z,5.53
2022-08-31T09:11:55.402Z,5.90
2022-08-31T09:14:39.244Z,5.17
2022-08-31T09:17:17.995Z,5.90
2022-08-31T09:20:01.675Z,5.23
2022-08-31T09:22:35.035Z,6.33
2022-08-31T09:25:04.527Z,5.83
2022-08-31T09:27:58.137Z,5.40
2022-08-31T09:30:52.159Z,5.60
2022-08-31T09:33:24.947Z,5.47
2022-08-31T09:35:56.820Z,6.10
2022-08-31T09:38:31.412Z,6.33
2022-08-31T09:41:02.078Z,6.20
2022-08-31T09:43:38.571Z,5.60
2022-08-31T09:46:12.627Z,5.80
2022-08-31T09:48:51.328Z,6.43
2022-08-31T09:51:28.175Z,5.73
2022-08-31T09:54:17.998Z,6.33
2022-08-31T09:56:55.432Z,6.13
2022-08-31T09:59:41.888Z,6.13
2022-08-31T10:02:28.646Z,6.87
2022-08-31T10:05:03.830Z,5.90
2022-08-31T10:07:43.150Z,6.33
2022-08-31T10:10:24.269Z,7.43
2022-08-31T10:13:04.361Z,6.00
2022-08-31T10:15:41.139Z,5.90
2022-08-31T10:18:16.012Z,6.77
2022-08-31T10:20:55.901Z,7.70
2022-08-31T10:23:34.716Z,6.93
2022-08-31T10:26:09.036Z,6.37
2022-08-31T10:28:44.802Z,7.27
2022-08-31T10:31:22.303Z,6.80
2022-08-31T10:34:18.151Z,7.10
2022-08-31T10:36:50.147Z,6.77
2022-08-31T10:39:29.525Z,7.60
2022-08-31T10:42:04.227Z,6.63
2022-08-31T10:44:42.137Z,7.30
2022-08-31T10:47:32.609Z,6.60
2022-08-31T10:50:04.690Z,6.87
2022-08-31T10:52:43.939Z,6.40
2022-08-31T10:55:23.475Z,6.57
2022-08-31T10:57:59.093Z,6.40
2022-08-31T11:00:42.545Z,7.00
2022-08-31T11:03:22.179Z,6.63
2022-08-31T11:06:00.307Z,6.70
2022-08-31T11:08:49.939Z,6.63
2022-08-31T11:11:27.429Z,6.33
2022-08-31T11:14:17.967Z,6.60
2022-08-31T11:17:20.431Z,6.97
2022-08-31T11:20:21.345Z,6.87
2022-08-31T11:23:42.214Z,7.07
2022-08-31T11:26:52.861Z,7.13
2022-08-31T11:29:35.471Z,6.47
2022-08-31T11:32:16.737Z,6.47
2022-08-31T11:34:51.420Z,7.00
2022-08-31T11:37:52.266Z,6.40
2022-08-31T11:41:03.028Z,6.20
2022-08-31T11:43:51.949Z,6.50
2022-08-31T11:47:05.793Z,6.50
2022-08-31T11:49:44.852Z,6.57
2022-08-31T11:52:43.301Z,6.43
2022-08-31T11:55:31.336Z,5.97
2022-08-31T11:58:25.926Z,6.20
2022-08-31T12:01:03.073Z,6.10
2022-08-31T12:03:51.369Z,6.53
2022-08-31T12:07:09.128Z,6.30
2022-08-31T12:10:03.365Z,6.20
2022-08-31T12:12:49.457Z,5.33
2022-08-31T12:15:27.691Z,5.87
2022-08-31T12:18:18.714Z,6.30
2022-08-31T12:21:16.956Z,5.87
2022-08-31T12:24:03.601Z,5.60
2022-08-31T12:26:52.818Z,6.07
2022-08-31T12:29:29.368Z,6.20
2022-08-31T12:32:24.082Z,5.87
2022-08-31T12:35:05.776Z,5.30
2022-08-31T12:37:37.246Z,6.50
2022-08-31T12:40:14.913Z,6.13
2022-08-31T12:43:01.495Z,4.97
2022-08-31T12:46:31.945Z,5.60
2022-08-31T12:49:22.925Z,5.80
2022-08-31T12:52:01.287Z,6.03
2022-08-31T12:55:23.475Z,6.03
2022-08-31T12:58:11.449Z,5.50
2022-08-31T13:00:43.416Z,5.77
2022-08-31T13:03:22.419Z,5.30
2022-08-31T13:06:08.301Z,5.53
2022-08-31T13:08:43.616Z,5.80
2022-08-31T13:11:20.836Z,5.57
2022-08-31T13:13:52.835Z,6.30
2022-08-31T13:16:21.890Z,5.47
2022-08-31T13:19:05.364Z,6.10
2022-08-31T13:21:34.578Z,5.80
2022-08-31T13:24:11.608Z,5.40
2022-08-31T13:26:39.768Z,5.47
2022-08-31T13:29:10.066Z,6.23
2022-08-31T13:31:50.058Z,7.00
2022-08-31T13:34:19.207Z,7.00
2022-08-31T13:36:53.716Z,5.53
2022-08-31T13:39:28.726Z,5.53
2022-08-31T13:42:05.899Z,5.20
2022-08-31T13:44:39.918Z,5.57
2022-08-31T13:47:23.103Z,5.43
2022-08-31T13:49:55.829Z,5.70
2022-08-31T13:52:29.180Z,5.47
2022-08-31T13:55:05.448Z,5.40
2022-08-31T13:57:35.845Z,5.17
2022-08-31T14:00:34.352Z,5.50
2022-08-31T14:03:45.611Z,5.10
2022-08-31T14:06:24.614Z,5.23
2022-08-31T14:09:00.236Z,5.33
2022-08-31T14:11:29.765Z,5.43
2022-08-31T14:14:07.442Z,5.70
2022-08-31T14:16:38.761Z,5.23
2022-08-31T14:19:10.654Z,5.10
2022-08-31T14:21:42.060Z,5.20
2022-08-31T14:24:12.193Z,4.83
2022-08-31T14:26:44.798Z,5.50
2022-08-31T14:29:15.921Z,5.07
2022-08-31T14:31:48.572Z,5.27
2022-08-31T14:34:24.846Z,5.23
2022-08-31T14:37:02.179Z,5.40
2022-08-31T14:39:32.835Z,5.90
2022-08-31T14:42:08.127Z,5.07
2022-08-31T14:44:42.048Z,5.00
2022-08-31T14:47:11.641Z,5.17
2022-08-31T14:49:41.114Z,5.13
2022-08-31T14:52:09.462Z,4.90
2022-08-31T14:54:38.179Z,5.10
2022-08-31T14:57:12.695Z,5.87
2022-08-31T15:02:16.268Z,5.10
2022-08-31T15:04:45.321Z,5.20
2022-08-31T15:07:15.619Z,4.77
2022-08-31T15:09:46.723Z,4.30
2022-08-31T15:12:16.641Z,4.47
2022-08-31T15:14:47.120Z,4.67
2022-08-31T15:17:19.190Z,4.70
2022-08-31T15:19:50.577Z,4.57
2022-08-31T15:22:19.414Z,4.83
2022-08-31T15:24:48.003Z,4.57
2022-08-31T15:27:18.253Z,4.03
2022-08-31T15:29:50.883Z,4.40
2022-08-31T15:32:19.196Z,4.47
2022-08-31T15:34:56.828Z,4.93
2022-08-31T15:37:27.287Z,4.27
2022-08-31T15:40:00.692Z,4.83
2022-08-31T15:42:31.364Z,4.63
2022-08-31T15:45:00.336Z,4.20
2022-08-31T15:47:50.021Z,4.13
2022-08-31T15:50:23.189Z,4.27
2022-08-31T15:52:56.167Z,4.20
2022-08-31T15:55:26.525Z,5.00
2022-08-31T15:57:59.305Z,4.23
2022-08-31T16:00:32.716Z,4.30
2022-08-31T16:03:02.084Z,4.03
2022-08-31T16:05:34.992Z,4.20
2022-08-31T16:08:04.165Z,4.10
2022-08-31T16:10:32.429Z,4.83
2022-08-31T16:13:03.137Z,4.67
2022-08-31T16:15:33.064Z,4.67
2022-08-31T16:18:05.767Z,4.93
2022-08-31T16:20:34.935Z,4.70
2022-08-31T16:23:07.041Z,5.13
2022-08-31T16:25:48.240Z,5.47
2022-08-31T16:28:20.483Z,4.80
2022-08-31T16:30:51.394Z,5.50
2022-08-31T16:33:20.552Z,4.57
2022-08-31T16:35:48.853Z,4.90
2022-08-31T16:38:17.043Z,5.17
2022-08-31T16:40:45.599Z,5.00
2022-08-31T16:43:20.206Z,4.93
2022-08-31T16:45:48.348Z,5.13
2022-08-31T16:48:34.185Z,5.07
2022-08-31T16:51:02.660Z,5.47
2022-08-31T16:53:32.470Z,5.20
2022-08-31T16:56:03.077Z,5.07
2022-08-31T16:58:51.239Z,4.93
2022-08-31T17:01:23.929Z,4.63
2022-08-31T17:03:55.873Z,5.03
2022-08-31T17:06:24.866Z,5.00
2022-08-31T17:08:57.357Z,5.10
2022-08-31T17:11:31.394Z,4.53
2022-08-31T17:14:04.226Z,4.90
2022-08-31T17:16:36.238Z,4.90
2022-08-31T17:19:08.363Z,5.37
2022-08-31T17:21:49.452Z,4.80
2022-08-31T17:24:21.752Z,5.37
2022-08-31T17:26:51.916Z,5.50
2022-08-31T17:29:23.533Z,5.77
2022-08-31T17:31:53.385Z,5.53
2022-08-31T17:34:26.892Z,5.23
2022-08-31T17:36:58.499Z,5.57
2022-08-31T17:39:28.062Z,5.37
2022-08-31T17:41:57.937Z,5.43
2022-08-31T17:44:30.968Z,4.77
2022-08-31T17:47:01.612Z,5.30
2022-08-31T17:49:32.024Z,6.20
2022-08-31T17:52:08.444Z,5.47
2022-08-31T17:54:40.243Z,5.27
2022-08-31T17:57:11.582Z,5.10
2022-08-31T17:59:43.858Z,5.60
2022-08-31T18:02:16.063Z,5.17
2022-08-31T18:04:45.122Z,5.23
2022-08-31T18:07:13.627Z,5.57
2022-08-31T18:09:45.466Z,5.13
2022-08-31T18:12:15.279Z,5.80
2022-08-31T18:14:45.280Z,5.53
2022-08-31T18:17:17.156Z,5.87
2022-08-31T18:19:46.011Z,6.13
2022-08-31T18:22:14.861Z,5.43
2022-08-31T18:24:43.838Z,5.73
2022-08-31T18:27:15.084Z,5.87
2022-08-31T18:29:46.053Z,6.50
2022-08-31T18:32:15.059Z,7.17
2022-08-31T18:34:46.212Z,6.67
2022-08-31T18:37:16.416Z,9.17
2022-08-31T18:39:59.592Z,7.17
2022-08-31T18:42:47.280Z,7.03
2022-08-31T18:45:18.279Z,6.77
2022-08-31T18:48:07.046Z,5.83
2022-08-31T18:50:37.520Z,6.80
2022-08-31T18:53:11.184Z,5.97
2022-08-31T18:55:44.044Z,7.90
2022-08-31T18:58:12.702Z,7.40
2022-08-31T19:00:42.883Z,7.03
2022-08-31T19:03:11.206Z,6.73
2022-08-31T19:05:41.174Z,6.93
2022-08-31T19:08:09.335Z,6.17
2022-08-31T19:10:37.535Z,6.77
2022-08-31T19:13:07.668Z,6.20
2022-08-31T19:15:41.300Z,5.93
2022-08-31T19:18:09.594Z,6.70
2022-08-31T19:20:38.485Z,6.10
2022-08-31T19:23:08.105Z,5.97
2022-08-31T19:25:43.342Z,6.37
2022-08-31T19:28:12.321Z,6.70
2022-08-31T19:30:47.586Z,7.00
2022-08-31T19:33:16.222Z,6.80
2022-08-31T19:35:45.073Z,6.37
2022-08-31T19:38:14.188Z,6.83
2022-08-31T19:40:42.487Z,6.13
2022-08-31T19:46:16.225Z,7.03
2022-08-31T19:48:46.089Z,6.90
2022-08-31T19:51:16.558Z,6.53
2022-08-31T19:53:46.044Z,7.80
2022-08-31T19:56:17.552Z,6.53
2022-08-31T19:58:48.324Z,7.47
2022-08-31T20:01:19.638Z,8.07
2022-08-31T20:03:49.136Z,7.80
2022-08-31T20:06:20.724Z,7.57
2022-08-31T20:08:50.899Z,8.33
2022-08-31T20:11:24.726Z,7.00
2022-08-31T20:13:53.198Z,8.47
2022-08-31T20:16:24.492Z,7.40
2022-08-31T20:19:05.917Z,7.60
2022-08-31T20:21:35.628Z,7.87
2022-08-31T20:24:07.608Z,7.53
2022-08-31T20:26:47.436Z,7.77
2022-08-31T20:29:21.414Z,7.03
2022-08-31T20:31:55.219Z,7.83
2022-08-31T20:34:28.715Z,7.87
2022-08-31T20:37:01.310Z,8.33
2022-08-31T20:39:32.388Z,7.50
2022-08-31T20:42:03.050Z,7.53
2022-08-31T20:44:34.743Z,8.37
2022-08-31T20:47:25.970Z,7.33
2022-08-31T20:49:56.185Z,7.90
2022-08-31T20:52:27.341Z,8.30
2022-08-31T20:55:01.792Z,8.30
2022-08-31T20:57:32.768Z,7.60
2022-08-31T21:00:02.805Z,7.00
2022-08-31T21:02:34.325Z,7.57
2022-08-31T21:07:52.294Z,8.70
2022-08-31T21:10:36.090Z,7.33
2022-08-31T21:13:09.034Z,7.97
2022-08-31T21:15:42.741Z,8.00
2022-08-31T21:18:15.993Z,7.53
2022-08-31T21:20:44.873Z,7.50
2022-08-31T21:23:13.301Z,7.63
2022-08-31T21:25:43.914Z,7.67
2022-08-31T21:28:15.572Z,7.97
2022-08-31T21:30:43.856Z,7.50
2022-08-31T21:33:13.305Z,7.13
2022-08-31T21:35:41.355Z,7.87
2022-08-31T21:38:12.908Z,8.00
2022-08-31T21:40:49.183Z,7.30
2022-08-31T21:43:17.482Z,7.37
2022-08-31T21:45:45.531Z,6.73
2022-08-31T21:48:14.955Z,6.53
2022-08-31T21:50:43.141Z,6.50
2022-08-31T21:53:11.857Z,7.07
2022-08-31T21:55:39.989Z,6.03
2022-08-31T21:58:08.028Z,6.13
2022-08-31T22:00:41.737Z,6.53
2022-08-31T22:03:10.524Z,6.73
2022-08-31T22:05:43.393Z,6.37
2022-08-31T22:08:11.585Z,5.60
2022-08-31T22:10:42.301Z,5.57
2022-08-31T22:13:13.045Z,6.10
2022-08-31T22:15:42.737Z,5.37
2022-08-31T22:18:58.189Z,5.53
2022-08-31T22:21:01.736Z,5.37
2022-08-31T22:23:29.953Z,5.50
2022-08-31T22:25:57.994Z,5.63
2022-08-31T22:28:27.511Z,5.40
2022-08-31T22:30:56.023Z,4.73
2022-08-31T22:33:24.155Z,5.23
2022-08-31T22:35:52.229Z,5.90
2022-08-31T22:38:21.733Z,5.33
2022-08-31T22:40:50.762Z,5.17
2022-08-31T22:43:18.942Z,5.40
2022-08-31T22:45:48.807Z,6.10
2022-08-31T22:48:17.570Z,7.07
2022-08-31T22:50:45.770Z,6.23
2022-08-31T22:53:14.747Z,5.37
2022-08-31T22:55:44.348Z,5.40
2022-08-31T22:58:13.681Z,6.00
2022-08-31T23:00:45.350Z,6.80
2022-08-31T23:03:14.778Z,6.17
2022-08-31T23:05:44.028Z,6.27
2022-08-31T23:08:13.761Z,6.83
2022-08-31T23:10:42.976Z,7.30
2022-08-31T23:13:12.409Z,6.43
2022-08-31T23:15:41.085Z,7.80
2022-08-31T23:18:10.407Z,7.03
2022-08-31T23:20:41.749Z,6.70
2022-08-31T23:23:10.450Z,7.17
2022-08-31T23:25:40.896Z,6.73
2022-08-31T23:28:09.653Z,6.67
2022-08-31T23:30:44.621Z,6.97
2022-08-31T23:33:12.774Z,6.60
2022-08-31T23:35:41.044Z,7.07
2022-08-31T23:38:09.079Z,6.10
2022-08-31T23:40:37.259Z,6.17
2022-08-31T23:43:07.923Z,6.33
2022-08-31T23:45:40.993Z,6.57
2022-08-31T23:48:09.352Z,6.13
2022-08-31T23:50:37.559Z,6.20
2022-08-31T23:53:17.297Z,6.40
2022-08-31T23:55:46.155Z,6.17
2022-08-31T23:58:16.089Z,6.70
